sensor_id;sensor_type;location;lat;lon;timestamp;pressure;altitude;pressure_sealevel;temperature;humidity
56052;BME280;41919;42.648;23.384;2022-11-25T00:02:01;94319.06;;;6.17;68.12
56052;BME280;41919;42.648;23.384;2022-11-25T00:04:26;94318.97;;;6.25;68.00
56052;BME280;41919;42.648;23.384;2022-11-25T00:06:53;94317.91;;;6.20;68.07
56052;BME280;41919;42.648;23.384;2022-11-25T00:09:18;94335.25;;;6.19;67.74
56052;BME280;41919;42.648;23.384;2022-11-25T00:11:43;94325.88;;;6.18;67.77
56052;BME280;41919;42.648;23.384;2022-11-25T00:14:09;94322.16;;;6.06;68.17
56052;BME280;41919;42.648;23.384;2022-11-25T00:16:35;94323.19;;;6.12;68.06
56052;BME280;41919;42.648;23.384;2022-11-25T00:19:01;94332.16;;;6.09;68.30
56052;BME280;41919;42.648;23.384;2022-11-25T00:21:27;94338.84;;;6.18;67.75
56052;BME280;41919;42.648;23.384;2022-11-25T00:23:57;94334.75;;;6.09;68.36
56052;BME280;41919;42.648;23.384;2022-11-25T00:26:23;94330.34;;;6.09;68.31
56052;BME280;41919;42.648;23.384;2022-11-25T00:28:48;94332.16;;;6.09;68.17
56052;BME280;41919;42.648;23.384;2022-11-25T00:31:15;94347.09;;;6.07;68.16
56052;BME280;41919;42.648;23.384;2022-11-25T00:33:41;94336.63;;;6.15;67.68
56052;BME280;41919;42.648;23.384;2022-11-25T00:36:11;94338.59;;;6.13;67.67
56052;BME280;41919;42.648;23.384;2022-11-25T00:38:38;94336.09;;;6.05;67.66
56052;BME280;41919;42.648;23.384;2022-11-25T00:41:03;94339.66;;;6.19;68.02
56052;BME280;41919;42.648;23.384;2022-11-25T00:43:47;94341.19;;;6.13;68.01
56052;BME280;41919;42.648;23.384;2022-11-25T00:46:31;94339.81;;;6.17;68.00
56052;BME280;41919;42.648;23.384;2022-11-25T00:48:56;94331.97;;;6.11;68.62
56052;BME280;41919;42.648;23.384;2022-11-25T00:51:21;94336.81;;;6.14;68.81
56052;BME280;41919;42.648;23.384;2022-11-25T00:53:47;94341.19;;;6.13;68.74
56052;BME280;41919;42.648;23.384;2022-11-25T00:56:12;94342.34;;;6.11;69.30
56052;BME280;41919;42.648;23.384;2022-11-25T00:58:37;94346.75;;;6.10;69.13
56052;BME280;41919;42.648;23.384;2022-11-25T01:01:03;94350.50;;;6.07;69.40
56052;BME280;41919;42.648;23.384;2022-11-25T01:03:28;94345.75;;;6.11;69.55
56052;BME280;41919;42.648;23.384;2022-11-25T01:05:53;94349.25;;;6.03;69.41
56052;BME280;41919;42.648;23.384;2022-11-25T01:08:19;94343.25;;;6.03;69.60
56052;BME280;41919;42.648;23.384;2022-11-25T01:10:44;94349.69;;;6.07;69.53
56052;BME280;41919;42.648;23.384;2022-11-25T01:13:09;94339.41;;;6.14;69.11
56052;BME280;41919;42.648;23.384;2022-11-25T01:15:38;94341.44;;;6.18;68.79
56052;BME280;41919;42.648;23.384;2022-11-25T01:18:03;94341.00;;;6.15;69.05
56052;BME280;41919;42.648;23.384;2022-11-25T01:20:28;94342.25;;;6.19;68.63
56052;BME280;41919;42.648;23.384;2022-11-25T01:22:53;94341.34;;;6.12;69.01
56052;BME280;41919;42.648;23.384;2022-11-25T01:25:19;94343.72;;;6.06;69.34
56052;BME280;41919;42.648;23.384;2022-11-25T01:27:44;94345.84;;;6.03;69.42
56052;BME280;41919;42.648;23.384;2022-11-25T01:30:09;94350.88;;;6.04;69.54
56052;BME280;41919;42.648;23.384;2022-11-25T01:32:35;94336.72;;;6.07;69.41
56052;BME280;41919;42.648;23.384;2022-11-25T01:35:00;94351.66;;;6.05;69.51
56052;BME280;41919;42.648;23.384;2022-11-25T01:37:25;94346.75;;;6.10;69.56
56052;BME280;41919;42.648;23.384;2022-11-25T01:39:51;94342.63;;;6.16;69.13
56052;BME280;41919;42.648;23.384;2022-11-25T01:42:16;94337.06;;;6.19;68.96
56052;BME280;41919;42.648;23.384;2022-11-25T01:44:41;94333.03;;;6.16;68.93
56052;BME280;41919;42.648;23.384;2022-11-25T01:47:20;94326.31;;;6.22;68.48
56052;BME280;41919;42.648;23.384;2022-11-25T01:49:52;94325.38;;;6.08;68.30
56052;BME280;41919;42.648;23.384;2022-11-25T01:55:10;94312.06;;;6.33;67.24
56052;BME280;41919;42.648;23.384;2022-11-25T01:57:47;94308.94;;;6.37;66.45
56052;BME280;41919;42.648;23.384;2022-11-25T02:00:14;94312.34;;;6.23;66.55
56052;BME280;41919;42.648;23.384;2022-11-25T02:02:40;94323.06;;;6.35;66.05
56052;BME280;41919;42.648;23.384;2022-11-25T02:05:06;94319.47;;;6.36;65.87
56052;BME280;41919;42.648;23.384;2022-11-25T02:07:36;94319.31;;;6.37;65.07
56052;BME280;41919;42.648;23.384;2022-11-25T02:10:04;94324.50;;;6.37;65.14
56052;BME280;41919;42.648;23.384;2022-11-25T02:12:29;94326.53;;;6.42;65.46
56052;BME280;41919;42.648;23.384;2022-11-25T02:14:56;94328.22;;;6.50;65.12
56052;BME280;41919;42.648;23.384;2022-11-25T02:17:23;94335.03;;;6.51;64.78
56052;BME280;41919;42.648;23.384;2022-11-25T02:22:59;94338.63;;;6.35;64.55
56052;BME280;41919;42.648;23.384;2022-11-25T02:27:27;94337.38;;;6.31;64.82
56052;BME280;41919;42.648;23.384;2022-11-25T02:29:52;94330.84;;;6.35;64.46
56052;BME280;41919;42.648;23.384;2022-11-25T02:32:21;94341.22;;;6.35;64.55
56052;BME280;41919;42.648;23.384;2022-11-25T02:34:47;94343.13;;;6.41;64.13
56052;BME280;41919;42.648;23.384;2022-11-25T02:37:13;94336.13;;;6.41;63.94
56052;BME280;41919;42.648;23.384;2022-11-25T02:39:38;94348.66;;;6.38;64.06
56052;BME280;41919;42.648;23.384;2022-11-25T02:42:04;94352.66;;;6.40;64.23
56052;BME280;41919;42.648;23.384;2022-11-25T02:44:30;94341.00;;;6.51;63.70
56052;BME280;41919;42.648;23.384;2022-11-25T02:46:56;94341.13;;;6.43;63.16
56052;BME280;41919;42.648;23.384;2022-11-25T02:49:21;94343.63;;;6.36;63.27
56052;BME280;41919;42.648;23.384;2022-11-25T02:51:46;94343.28;;;6.39;63.15
56052;BME280;41919;42.648;23.384;2022-11-25T02:54:12;94348.66;;;6.38;63.30
56052;BME280;41919;42.648;23.384;2022-11-25T02:56:38;94345.44;;;6.36;63.17
56052;BME280;41919;42.648;23.384;2022-11-25T02:59:04;94342.84;;;6.36;63.53
56052;BME280;41919;42.648;23.384;2022-11-25T03:01:29;94341.72;;;6.23;63.77
56052;BME280;41919;42.648;23.384;2022-11-25T03:03:55;94347.16;;;6.28;64.06
56052;BME280;41919;42.648;23.384;2022-11-25T03:06:20;94350.31;;;6.24;64.13
56052;BME280;41919;42.648;23.384;2022-11-25T03:08:46;94348.31;;;6.26;64.24
56052;BME280;41919;42.648;23.384;2022-11-25T03:11:11;94360.69;;;6.24;64.28
56052;BME280;41919;42.648;23.384;2022-11-25T03:13:36;94358.09;;;6.24;64.94
56052;BME280;41919;42.648;23.384;2022-11-25T03:16:02;94359.63;;;6.18;65.16
56052;BME280;41919;42.648;23.384;2022-11-25T03:18:27;94357.56;;;6.14;65.64
56052;BME280;41919;42.648;23.384;2022-11-25T03:20:53;94358.38;;;5.99;66.65
56052;BME280;41919;42.648;23.384;2022-11-25T03:23:19;94355.88;;;6.06;66.47
56052;BME280;41919;42.648;23.384;2022-11-25T03:25:44;94370.09;;;6.10;66.42
56052;BME280;41919;42.648;23.384;2022-11-25T03:28:12;94357.94;;;6.11;66.32
56052;BME280;41919;42.648;23.384;2022-11-25T03:30:38;94365.59;;;6.04;66.83
56052;BME280;41919;42.648;23.384;2022-11-25T03:33:03;94371.63;;;6.04;66.79
56052;BME280;41919;42.648;23.384;2022-11-25T03:35:29;94369.94;;;5.97;67.26
56052;BME280;41919;42.648;23.384;2022-11-25T03:37:54;94369.09;;;5.96;67.75
56052;BME280;41919;42.648;23.384;2022-11-25T03:40:20;94379.31;;;5.98;67.81
56052;BME280;41919;42.648;23.384;2022-11-25T03:42:45;94378.16;;;6.00;68.21
56052;BME280;41919;42.648;23.384;2022-11-25T03:45:11;94386.28;;;5.97;68.69
56052;BME280;41919;42.648;23.384;2022-11-25T03:47:37;94383.06;;;5.95;69.14
56052;BME280;41919;42.648;23.384;2022-11-25T03:50:03;94378.50;;;5.97;69.15
56052;BME280;41919;42.648;23.384;2022-11-25T03:52:28;94387.94;;;5.75;70.36
56052;BME280;41919;42.648;23.384;2022-11-25T03:54:54;94391.59;;;5.81;70.68
56052;BME280;41919;42.648;23.384;2022-11-25T03:57:19;94399.31;;;5.89;70.55
56052;BME280;41919;42.648;23.384;2022-11-25T03:59:44;94390.09;;;5.86;70.55
56052;BME280;41919;42.648;23.384;2022-11-25T04:02:10;94400.00;;;5.83;71.12
56052;BME280;41919;42.648;23.384;2022-11-25T04:04:35;94405.28;;;5.75;71.55
56052;BME280;41919;42.648;23.384;2022-11-25T04:07:00;94403.56;;;5.67;71.72
56052;BME280;41919;42.648;23.384;2022-11-25T04:09:26;94398.56;;;5.65;72.15
56052;BME280;41919;42.648;23.384;2022-11-25T04:11:51;94409.75;;;5.66;72.06
56052;BME280;41919;42.648;23.384;2022-11-25T04:14:35;94412.78;;;5.55;72.51
56052;BME280;41919;42.648;23.384;2022-11-25T04:17:00;94407.47;;;5.48;72.76
56052;BME280;41919;42.648;23.384;2022-11-25T04:19:25;94416.97;;;5.56;72.64
56052;BME280;41919;42.648;23.384;2022-11-25T04:21:51;94416.72;;;5.50;72.82
56052;BME280;41919;42.648;23.384;2022-11-25T04:24:17;94419.94;;;5.53;72.55
56052;BME280;41919;42.648;23.384;2022-11-25T04:26:42;94430.28;;;5.53;72.27
56052;BME280;41919;42.648;23.384;2022-11-25T04:29:07;94431.09;;;5.53;72.25
56052;BME280;41919;42.648;23.384;2022-11-25T04:31:33;94439.66;;;5.54;72.09
56052;BME280;41919;42.648;23.384;2022-11-25T04:33:58;94438.16;;;5.59;71.89
56052;BME280;41919;42.648;23.384;2022-11-25T04:36:23;94442.19;;;5.62;71.82
56052;BME280;41919;42.648;23.384;2022-11-25T04:38:48;94438.53;;;5.56;71.88
56052;BME280;41919;42.648;23.384;2022-11-25T04:41:14;94447.19;;;5.48;71.95
56052;BME280;41919;42.648;23.384;2022-11-25T04:43:39;94452.53;;;5.47;72.21
56052;BME280;41919;42.648;23.384;2022-11-25T04:46:05;94462.06;;;5.46;72.33
56052;BME280;41919;42.648;23.384;2022-11-25T04:48:30;94458.50;;;5.47;72.19
56052;BME280;41919;42.648;23.384;2022-11-25T04:50:55;94453.88;;;5.43;72.24
56052;BME280;41919;42.648;23.384;2022-11-25T04:53:20;94455.63;;;5.42;72.27
56052;BME280;41919;42.648;23.384;2022-11-25T04:55:46;94473.28;;;5.47;72.26
56052;BME280;41919;42.648;23.384;2022-11-25T04:58:11;94473.44;;;5.45;72.40
56052;BME280;41919;42.648;23.384;2022-11-25T05:00:37;94464.09;;;5.36;72.55
56052;BME280;41919;42.648;23.384;2022-11-25T05:03:02;94476.38;;;5.42;72.49
56052;BME280;41919;42.648;23.384;2022-11-25T05:05:27;94481.28;;;5.37;72.70
56052;BME280;41919;42.648;23.384;2022-11-25T05:07:53;94483.25;;;5.35;72.70
56052;BME280;41919;42.648;23.384;2022-11-25T05:10:18;94486.63;;;5.36;72.63
56052;BME280;41919;42.648;23.384;2022-11-25T05:12:43;94478.09;;;5.27;72.96
56052;BME280;41919;42.648;23.384;2022-11-25T05:15:09;94490.66;;;5.38;72.55
56052;BME280;41919;42.648;23.384;2022-11-25T05:17:34;94496.13;;;5.43;72.25
56052;BME280;41919;42.648;23.384;2022-11-25T05:20:00;94492.31;;;5.31;72.41
56052;BME280;41919;42.648;23.384;2022-11-25T05:22:26;94491.66;;;5.37;72.14
56052;BME280;41919;42.648;23.384;2022-11-25T05:24:52;94496.53;;;5.32;72.06
56052;BME280;41919;42.648;23.384;2022-11-25T05:27:18;94491.69;;;5.29;72.13
56052;BME280;41919;42.648;23.384;2022-11-25T05:29:43;94497.16;;;5.34;71.61
56052;BME280;41919;42.648;23.384;2022-11-25T05:32:08;94504.94;;;5.34;71.44
56052;BME280;41919;42.648;23.384;2022-11-25T05:34:34;94512.38;;;5.37;71.09
56052;BME280;41919;42.648;23.384;2022-11-25T05:36:59;94517.84;;;5.42;70.71
56052;BME280;41919;42.648;23.384;2022-11-25T05:39:25;94512.66;;;5.42;70.41
56052;BME280;41919;42.648;23.384;2022-11-25T05:41:50;94517.16;;;5.48;69.82
56052;BME280;41919;42.648;23.384;2022-11-25T05:44:15;94528.91;;;5.59;69.32
56052;BME280;41919;42.648;23.384;2022-11-25T05:46:43;94525.81;;;5.64;69.02
56052;BME280;41919;42.648;23.384;2022-11-25T05:49:08;94532.88;;;5.70;68.64
56052;BME280;41919;42.648;23.384;2022-11-25T05:51:33;94526.38;;;5.74;68.34
56052;BME280;41919;42.648;23.384;2022-11-25T05:53:59;94535.41;;;5.78;68.53
56052;BME280;41919;42.648;23.384;2022-11-25T05:56:24;94541.44;;;5.94;67.85
56052;BME280;41919;42.648;23.384;2022-11-25T05:58:49;94546.06;;;6.06;67.16
56052;BME280;41919;42.648;23.384;2022-11-25T06:01:15;94554.94;;;6.12;66.51
56052;BME280;41919;42.648;23.384;2022-11-25T06:03:40;94555.28;;;6.09;66.46
56052;BME280;41919;42.648;23.384;2022-11-25T06:06:06;94567.56;;;6.30;65.75
56052;BME280;41919;42.648;23.384;2022-11-25T06:08:31;94563.19;;;6.31;65.44
56052;BME280;41919;42.648;23.384;2022-11-25T06:10:57;94496.34;;;6.18;64.51
56052;BME280;41919;42.648;23.384;2022-11-25T06:13:22;94568.88;;;6.79;63.33
56052;BME280;41919;42.648;23.384;2022-11-25T06:15:48;94581.66;;;6.95;62.65
56052;BME280;41919;42.648;23.384;2022-11-25T06:18:14;94583.81;;;6.92;62.37
56052;BME280;41919;42.648;23.384;2022-11-25T06:20:39;94586.88;;;6.95;62.35
56052;BME280;41919;42.648;23.384;2022-11-25T06:23:05;94580.69;;;6.96;62.27
56052;BME280;41919;42.648;23.384;2022-11-25T06:25:31;94587.50;;;6.97;61.89
56052;BME280;41919;42.648;23.384;2022-11-25T06:27:57;94592.06;;;6.95;61.82
56052;BME280;41919;42.648;23.384;2022-11-25T06:30:22;94589.13;;;6.98;61.84
56052;BME280;41919;42.648;23.384;2022-11-25T06:32:50;94589.66;;;6.79;62.51
56052;BME280;41919;42.648;23.384;2022-11-25T06:35:15;94589.56;;;6.72;62.83
56052;BME280;41919;42.648;23.384;2022-11-25T06:37:40;94593.56;;;6.75;62.39
56052;BME280;41919;42.648;23.384;2022-11-25T06:40:06;94605.31;;;6.71;62.22
56052;BME280;41919;42.648;23.384;2022-11-25T06:42:32;94611.75;;;6.75;62.15
56052;BME280;41919;42.648;23.384;2022-11-25T06:44:57;94619.63;;;6.66;61.46
56052;BME280;41919;42.648;23.384;2022-11-25T06:47:22;94617.22;;;6.65;61.73
56052;BME280;41919;42.648;23.384;2022-11-25T06:49:48;94629.94;;;6.75;61.21
56052;BME280;41919;42.648;23.384;2022-11-25T06:52:13;94618.91;;;6.73;61.82
56052;BME280;41919;42.648;23.384;2022-11-25T06:54:39;94632.91;;;6.72;61.56
56052;BME280;41919;42.648;23.384;2022-11-25T06:57:15;94627.78;;;6.78;61.69
56052;BME280;41919;42.648;23.384;2022-11-25T06:59:41;94633.91;;;6.85;61.84
56052;BME280;41919;42.648;23.384;2022-11-25T07:02:08;94641.25;;;6.97;61.96
56052;BME280;41919;42.648;23.384;2022-11-25T07:04:35;94637.31;;;7.16;61.50
56052;BME280;41919;42.648;23.384;2022-11-25T07:07:00;94576.47;;;6.95;60.94
56052;BME280;41919;42.648;23.384;2022-11-25T07:09:28;94635.22;;;7.26;61.04
56052;BME280;41919;42.648;23.384;2022-11-25T07:11:54;94635.56;;;7.38;60.44
56052;BME280;41919;42.648;23.384;2022-11-25T07:14:19;94641.03;;;7.43;60.33
56052;BME280;41919;42.648;23.384;2022-11-25T07:16:45;94647.31;;;7.34;60.39
56052;BME280;41919;42.648;23.384;2022-11-25T07:19:11;94638.09;;;7.46;59.94
56052;BME280;41919;42.648;23.384;2022-11-25T07:21:37;94635.56;;;7.53;59.87
56052;BME280;41919;42.648;23.384;2022-11-25T07:24:04;94631.25;;;7.60;59.28
56052;BME280;41919;42.648;23.384;2022-11-25T07:26:31;94640.56;;;7.54;59.58
56052;BME280;41919;42.648;23.384;2022-11-25T07:28:58;94639.94;;;7.67;58.93
56052;BME280;41919;42.648;23.384;2022-11-25T07:31:25;94637.69;;;7.64;58.91
56052;BME280;41919;42.648;23.384;2022-11-25T07:33:51;94641.53;;;7.68;58.66
56052;BME280;41919;42.648;23.384;2022-11-25T07:36:16;94640.16;;;7.72;58.74
56052;BME280;41919;42.648;23.384;2022-11-25T07:38:42;94639.88;;;7.82;58.34
56052;BME280;41919;42.648;23.384;2022-11-25T07:41:08;94649.78;;;7.93;58.05
56052;BME280;41919;42.648;23.384;2022-11-25T07:43:35;94647.53;;;8.27;57.15
56052;BME280;41919;42.648;23.384;2022-11-25T07:46:07;94647.47;;;9.33;54.50
56052;BME280;41919;42.648;23.384;2022-11-25T07:48:33;94649.00;;;10.37;50.65
56052;BME280;41919;42.648;23.384;2022-11-25T07:50:58;94643.09;;;11.28;48.36
56052;BME280;41919;42.648;23.384;2022-11-25T07:53:23;94644.88;;;11.93;46.28
56052;BME280;41919;42.648;23.384;2022-11-25T07:55:49;94647.16;;;12.46;44.75
56052;BME280;41919;42.648;23.384;2022-11-25T07:58:14;94652.38;;;12.53;44.14
56052;BME280;41919;42.648;23.384;2022-11-25T08:00:39;94645.13;;;14.09;40.76
56052;BME280;41919;42.648;23.384;2022-11-25T08:03:05;94654.72;;;15.00;38.53
56052;BME280;41919;42.648;23.384;2022-11-25T08:05:31;94651.41;;;17.00;34.51
56052;BME280;41919;42.648;23.384;2022-11-25T08:07:56;94650.63;;;18.22;32.18
56052;BME280;41919;42.648;23.384;2022-11-25T08:10:22;94661.28;;;18.87;30.49
56052;BME280;41919;42.648;23.384;2022-11-25T08:12:47;94650.34;;;20.21;28.92
56052;BME280;41919;42.648;23.384;2022-11-25T08:15:12;94654.03;;;21.89;26.04
56052;BME280;41919;42.648;23.384;2022-11-25T08:17:37;94654.75;;;21.09;26.25
56052;BME280;41919;42.648;23.384;2022-11-25T08:20:03;94656.75;;;21.74;25.55
56052;BME280;41919;42.648;23.384;2022-11-25T08:22:28;94651.19;;;22.36;24.42
56052;BME280;41919;42.648;23.384;2022-11-25T08:24:54;94650.81;;;23.26;23.61
56052;BME280;41919;42.648;23.384;2022-11-25T08:27:19;94657.63;;;23.91;22.41
56052;BME280;41919;42.648;23.384;2022-11-25T08:29:44;94661.75;;;24.02;22.31
56052;BME280;41919;42.648;23.384;2022-11-25T08:32:09;94662.00;;;24.25;21.92
56052;BME280;41919;42.648;23.384;2022-11-25T08:34:35;94652.13;;;25.01;21.11
56052;BME280;41919;42.648;23.384;2022-11-25T08:37:00;94656.66;;;24.25;21.71
56052;BME280;41919;42.648;23.384;2022-11-25T08:39:25;94658.59;;;24.19;21.83
56052;BME280;41919;42.648;23.384;2022-11-25T08:41:51;94664.28;;;24.94;21.25
56052;BME280;41919;42.648;23.384;2022-11-25T08:44:16;94663.44;;;23.16;22.68
56052;BME280;41919;42.648;23.384;2022-11-25T08:46:41;94656.63;;;24.30;22.08
56052;BME280;41919;42.648;23.384;2022-11-25T08:49:07;94613.16;;;24.24;21.59
56052;BME280;41919;42.648;23.384;2022-11-25T08:51:34;94669.09;;;23.92;22.21
56052;BME280;41919;42.648;23.384;2022-11-25T08:54:00;94669.03;;;23.97;21.98
56052;BME280;41919;42.648;23.384;2022-11-25T08:56:26;94664.75;;;24.39;21.72
56052;BME280;41919;42.648;23.384;2022-11-25T08:58:52;94659.34;;;24.25;21.42
56052;BME280;41919;42.648;23.384;2022-11-25T09:01:18;94663.19;;;23.95;21.93
56052;BME280;41919;42.648;23.384;2022-11-25T09:03:45;94675.09;;;23.25;22.58
56052;BME280;41919;42.648;23.384;2022-11-25T09:06:11;94667.16;;;22.80;23.06
56052;BME280;41919;42.648;23.384;2022-11-25T09:08:37;94657.78;;;22.43;23.77
56052;BME280;41919;42.648;23.384;2022-11-25T09:11:04;94677.03;;;21.29;25.04
56052;BME280;41919;42.648;23.384;2022-11-25T09:13:29;94671.28;;;20.07;26.84
56052;BME280;41919;42.648;23.384;2022-11-25T09:15:55;94678.66;;;18.77;28.85
56052;BME280;41919;42.648;23.384;2022-11-25T09:18:20;94674.75;;;19.17;28.52
56052;BME280;41919;42.648;23.384;2022-11-25T09:20:50;94677.97;;;18.60;29.47
56052;BME280;41919;42.648;23.384;2022-11-25T09:23:16;94674.88;;;17.53;30.87
56052;BME280;41919;42.648;23.384;2022-11-25T09:25:41;94672.41;;;17.46;31.13
56052;BME280;41919;42.648;23.384;2022-11-25T09:28:08;94680.53;;;17.39;31.40
56052;BME280;41919;42.648;23.384;2022-11-25T09:30:33;94677.78;;;17.34;31.98
56052;BME280;41919;42.648;23.384;2022-11-25T09:32:58;94670.13;;;16.99;32.55
56052;BME280;41919;42.648;23.384;2022-11-25T09:35:24;94676.50;;;16.69;33.31
56052;BME280;41919;42.648;23.384;2022-11-25T09:37:50;94674.41;;;16.54;33.49
56052;BME280;41919;42.648;23.384;2022-11-25T09:40:58;94667.34;;;16.43;33.30
56052;BME280;41919;42.648;23.384;2022-11-25T09:46:07;94669.50;;;15.88;34.53
56052;BME280;41919;42.648;23.384;2022-11-25T09:48:59;94677.47;;;15.29;35.71
56052;BME280;41919;42.648;23.384;2022-11-25T09:51:33;94681.56;;;14.78;36.63
56052;BME280;41919;42.648;23.384;2022-11-25T09:54:07;94620.72;;;14.98;35.87
56052;BME280;41919;42.648;23.384;2022-11-25T09:59:13;94676.94;;;14.01;37.89
56052;BME280;41919;42.648;23.384;2022-11-25T10:01:58;94681.63;;;13.25;39.55
56052;BME280;41919;42.648;23.384;2022-11-25T10:04:26;94687.13;;;13.17;39.87
56052;BME280;41919;42.648;23.384;2022-11-25T10:06:54;94680.59;;;13.26;40.29
56052;BME280;41919;42.648;23.384;2022-11-25T10:09:25;94679.38;;;13.04;40.64
56052;BME280;41919;42.648;23.384;2022-11-25T10:16:56;94672.53;;;12.21;42.71
56052;BME280;41919;42.648;23.384;2022-11-25T10:21:48;94680.13;;;11.97;42.47
56052;BME280;41919;42.648;23.384;2022-11-25T10:24:14;94677.28;;;11.99;42.81
56052;BME280;41919;42.648;23.384;2022-11-25T10:26:42;94680.56;;;11.81;43.60
56052;BME280;41919;42.648;23.384;2022-11-25T10:31:36;94674.56;;;11.60;44.20
56052;BME280;41919;42.648;23.384;2022-11-25T10:34:06;94683.75;;;11.24;44.78
56052;BME280;41919;42.648;23.384;2022-11-25T10:36:36;94675.53;;;10.81;46.26
56052;BME280;41919;42.648;23.384;2022-11-25T10:41:47;94681.97;;;10.38;47.46
56052;BME280;41919;42.648;23.384;2022-11-25T10:44:18;94675.94;;;10.37;47.79
56052;BME280;41919;42.648;23.384;2022-11-25T10:46:53;94679.75;;;10.62;47.70
56052;BME280;41919;42.648;23.384;2022-11-25T10:52:05;94688.34;;;10.22;47.39
56052;BME280;41919;42.648;23.384;2022-11-25T10:54:33;94676.88;;;10.23;46.56
56052;BME280;41919;42.648;23.384;2022-11-25T10:57:00;94691.94;;;10.14;48.11
56052;BME280;41919;42.648;23.384;2022-11-25T10:59:33;94695.97;;;10.24;47.36
56052;BME280;41919;42.648;23.384;2022-11-25T11:04:30;94676.88;;;10.23;47.40
56052;BME280;41919;42.648;23.384;2022-11-25T11:06:57;94699.44;;;10.31;47.45
56052;BME280;41919;42.648;23.384;2022-11-25T11:09:35;94701.25;;;10.37;47.03
56052;BME280;41919;42.648;23.384;2022-11-25T11:12:34;94699.03;;;10.34;47.12
56052;BME280;41919;42.648;23.384;2022-11-25T11:14:53;94703.66;;;10.32;47.12
56052;BME280;41919;42.648;23.384;2022-11-25T11:17:37;94700.19;;;10.25;47.56
56052;BME280;41919;42.648;23.384;2022-11-25T11:22:28;94700.97;;;10.12;47.99
56052;BME280;41919;42.648;23.384;2022-11-25T11:27:54;94708.56;;;9.93;49.39
56052;BME280;41919;42.648;23.384;2022-11-25T11:30:21;94706.31;;;9.90;49.50
56052;BME280;41919;42.648;23.384;2022-11-25T11:32:59;94714.09;;;9.84;50.17
56052;BME280;41919;42.648;23.384;2022-11-25T11:35:41;94704.44;;;9.77;50.25
56052;BME280;41919;42.648;23.384;2022-11-25T11:40:48;94716.75;;;9.42;51.49
56052;BME280;41919;42.648;23.384;2022-11-25T11:43:23;94727.72;;;9.37;52.01
56052;BME280;41919;42.648;23.384;2022-11-25T11:48:25;94718.28;;;9.71;51.50
56052;BME280;41919;42.648;23.384;2022-11-25T11:51:01;94720.28;;;9.69;51.29
56052;BME280;41919;42.648;23.384;2022-11-25T11:53:35;94721.84;;;9.57;52.12
56052;BME280;41919;42.648;23.384;2022-11-25T11:58:34;94721.06;;;9.63;51.61
56052;BME280;41919;42.648;23.384;2022-11-25T12:03:28;94713.16;;;9.50;51.51
56052;BME280;41919;42.648;23.384;2022-11-25T12:05:56;94719.38;;;9.49;51.61
56052;BME280;41919;42.648;23.384;2022-11-25T12:10:53;94719.69;;;9.67;51.45
56052;BME280;41919;42.648;23.384;2022-11-25T12:15:53;94727.09;;;9.64;51.57
56052;BME280;41919;42.648;23.384;2022-11-25T12:23:57;94731.19;;;9.45;52.51
56052;BME280;41919;42.648;23.384;2022-11-25T12:27:14;94722.06;;;9.27;53.22
56052;BME280;41919;42.648;23.384;2022-11-25T12:34:40;94724.00;;;9.18;53.80
56052;BME280;41919;42.648;23.384;2022-11-25T12:37:22;94718.25;;;9.30;53.35
56052;BME280;41919;42.648;23.384;2022-11-25T12:40:11;94736.56;;;9.36;53.14
56052;BME280;41919;42.648;23.384;2022-11-25T12:42:38;94729.63;;;9.22;53.38
56052;BME280;41919;42.648;23.384;2022-11-25T12:47:33;94721.53;;;9.10;54.03
56052;BME280;41919;42.648;23.384;2022-11-25T12:49:58;94723.94;;;9.05;54.57
56052;BME280;41919;42.648;23.384;2022-11-25T12:55:05;94724.81;;;8.91;54.04
56052;BME280;41919;42.648;23.384;2022-11-25T13:00:27;94700.47;;;8.77;54.74
56052;BME280;41919;42.648;23.384;2022-11-25T13:15:44;94645.16;;;8.32;54.66
56052;BME280;41919;42.648;23.384;2022-11-25T13:18:12;94688.56;;;8.68;54.75
56052;BME280;41919;42.648;23.384;2022-11-25T13:20:52;94691.16;;;8.68;54.86
56052;BME280;41919;42.648;23.384;2022-11-25T13:25:43;94693.69;;;8.39;55.34
56052;BME280;41919;42.648;23.384;2022-11-25T13:28:31;94679.63;;;8.34;55.56
56052;BME280;41919;42.648;23.384;2022-11-25T13:30:55;94694.38;;;8.27;55.69
56052;BME280;41919;42.648;23.384;2022-11-25T13:36:21;94699.38;;;8.43;55.29
56052;BME280;41919;42.648;23.384;2022-11-25T13:48:59;94711.59;;;8.06;55.99
56052;BME280;41919;42.648;23.384;2022-11-25T13:51:25;94709.25;;;8.11;56.19
56052;BME280;41919;42.648;23.384;2022-11-25T13:53:58;94706.88;;;7.95;56.29
56052;BME280;41919;42.648;23.384;2022-11-25T13:56:26;94722.59;;;7.87;56.56
56052;BME280;41919;42.648;23.384;2022-11-25T14:01:36;94728.88;;;7.62;57.22
56052;BME280;41919;42.648;23.384;2022-11-25T14:04:08;94735.16;;;7.53;57.58
56052;BME280;41919;42.648;23.384;2022-11-25T14:17:27;94746.66;;;7.29;58.42
56052;BME280;41919;42.648;23.384;2022-11-25T14:19:32;94750.22;;;7.28;58.86
56052;BME280;41919;42.648;23.384;2022-11-25T14:24:37;94751.66;;;7.16;59.38
56052;BME280;41919;42.648;23.384;2022-11-25T14:27:11;94753.63;;;7.14;59.95
56052;BME280;41919;42.648;23.384;2022-11-25T14:29:39;94750.66;;;7.17;60.16
56052;BME280;41919;42.648;23.384;2022-11-25T14:32:09;94759.91;;;7.19;60.24
56052;BME280;41919;42.648;23.384;2022-11-25T14:34:41;94765.00;;;7.13;60.06
56052;BME280;41919;42.648;23.384;2022-11-25T14:42:04;94754.16;;;6.94;61.24
56052;BME280;41919;42.648;23.384;2022-11-25T14:44:49;94755.81;;;6.87;61.85
56052;BME280;41919;42.648;23.384;2022-11-25T14:47:19;94747.50;;;6.92;61.95
56052;BME280;41919;42.648;23.384;2022-11-25T14:49:46;94749.28;;;6.91;62.13
56052;BME280;41919;42.648;23.384;2022-11-25T14:52:16;94764.34;;;6.96;61.90
56052;BME280;41919;42.648;23.384;2022-11-25T14:54:42;94755.75;;;6.95;62.02
56052;BME280;41919;42.648;23.384;2022-11-25T14:57:08;94752.84;;;6.75;62.87
56052;BME280;41919;42.648;23.384;2022-11-25T14:59:34;94752.22;;;6.88;62.23